createdAt,value
2019-05-18T00:00:39.624Z,7.10
2019-05-18T00:03:08.277Z,7.10
2019-05-18T00:05:37.022Z,6.70
2019-05-18T00:08:05.707Z,7.58
2019-05-18T00:10:34.373Z,7.03
2019-05-18T00:13:03.065Z,6.83
2019-05-18T00:15:31.772Z,7.45
2019-05-18T00:18:00.458Z,7.20
2019-05-18T00:20:29.160Z,7.83
2019-05-18T00:22:57.854Z,7.55
2019-05-18T00:25:26.611Z,6.83
2019-05-18T00:27:55.323Z,7.40
2019-05-18T00:30:24.005Z,7.30
2019-05-18T00:32:52.682Z,7.22
2019-05-18T00:35:21.348Z,6.87
2019-05-18T00:37:50.033Z,7.45
2019-05-18T00:40:20.084Z,7.72
2019-05-18T00:42:48.773Z,7.40
2019-05-18T00:45:17.490Z,7.90
2019-05-18T00:47:47.278Z,7.97
2019-05-18T00:50:15.933Z,7.47
2019-05-18T00:52:44.607Z,7.80
2019-05-18T00:55:13.297Z,8.18
2019-05-18T00:57:41.959Z,7.53
2019-05-18T01:00:11.731Z,8.18
2019-05-18T01:02:40.444Z,8.33
2019-05-18T01:05:09.123Z,9.10
2019-05-18T01:07:37.716Z,8.33
2019-05-18T01:10:09.133Z,8.20
2019-05-18T01:12:37.818Z,8.60
2019-05-18T01:15:06.935Z,8.40
2019-05-18T01:17:35.669Z,8.70
2019-05-18T01:20:04.938Z,7.45
2019-05-18T01:22:33.654Z,7.87
2019-05-18T01:25:02.327Z,8.33
2019-05-18T01:27:30.993Z,9.10
2019-05-18T01:29:59.685Z,9.15
2019-05-18T01:32:28.799Z,8.28
2019-05-18T01:34:57.461Z,8.70
2019-05-18T01:37:26.142Z,8.78
2019-05-18T01:39:54.862Z,9.38
2019-05-18T01:42:23.533Z,8.60
2019-05-18T01:44:52.191Z,8.65
2019-05-18T01:47:20.901Z,8.40
2019-05-18T01:49:49.618Z,8.98
2019-05-18T01:52:18.271Z,9.08
2019-05-18T01:54:47.006Z,8.98
2019-05-18T01:57:15.686Z,9.73
2019-05-18T01:59:44.361Z,9.75
2019-05-18T02:02:13.046Z,10.25
2019-05-18T02:04:41.704Z,9.80
2019-05-18T02:07:10.390Z,9.50
2019-05-18T02:09:39.071Z,9.73
2019-05-18T02:12:07.833Z,8.75
2019-05-18T02:14:36.501Z,9.18
2019-05-18T02:17:05.170Z,9.20
2019-05-18T02:19:33.906Z,9.35
2019-05-18T02:22:02.564Z,9.33
2019-05-18T02:24:31.225Z,9.48
2019-05-18T02:27:01.117Z,8.35
2019-05-18T02:29:29.769Z,9.25
2019-05-18T02:31:58.475Z,8.25
2019-05-18T02:34:27.197Z,8.25
2019-05-18T02:36:55.889Z,8.98
2019-05-18T02:39:26.125Z,8.78
2019-05-18T02:41:54.781Z,9.18
2019-05-18T02:44:23.453Z,9.38
2019-05-18T02:46:52.189Z,9.98
2019-05-18T02:49:20.920Z,9.98
2019-05-18T02:51:49.579Z,9.65
2019-05-18T02:54:18.297Z,10.30
2019-05-18T02:56:47.005Z,9.80
2019-05-18T02:59:15.664Z,9.30
2019-05-18T03:01:44.365Z,9.70
2019-05-18T03:04:13.033Z,10.30
2019-05-18T03:06:41.730Z,10.03
2019-05-18T03:09:10.428Z,9.73
2019-05-18T03:11:39.104Z,9.40
2019-05-18T03:14:07.763Z,9.75
2019-05-18T03:16:36.482Z,10.13
2019-05-18T03:19:08.641Z,9.73
2019-05-18T03:21:35.481Z,9.88
2019-05-18T03:24:05.692Z,9.60
2019-05-18T03:26:34.369Z,9.83
2019-05-18T03:29:03.065Z,9.33
2019-05-18T03:31:31.791Z,9.88
2019-05-18T03:34:00.443Z,9.50
2019-05-18T03:36:29.114Z,10.40
2019-05-18T03:38:57.833Z,10.03
2019-05-18T03:41:26.495Z,10.78
2019-05-18T03:43:55.166Z,10.50
2019-05-18T03:46:24.231Z,10.03
2019-05-18T03:48:52.945Z,10.35
2019-05-18T03:51:24.124Z,9.23
2019-05-18T03:53:52.800Z,10.30
2019-05-18T03:56:21.491Z,10.90
2019-05-18T03:58:50.210Z,10.08
2019-05-18T04:01:18.858Z,10.70
2019-05-18T04:03:47.506Z,10.32
2019-05-18T04:06:16.231Z,11.05
2019-05-18T04:08:44.925Z,11.80
2019-05-18T04:11:13.587Z,11.63
2019-05-18T04:13:43.786Z,12.75
2019-05-18T04:16:12.463Z,12.45
2019-05-18T04:18:41.159Z,13.22
2019-05-18T04:21:09.754Z,11.25
2019-05-18T04:23:38.433Z,10.03
2019-05-18T04:26:07.157Z,10.10
2019-05-18T04:28:35.887Z,10.03
2019-05-18T04:31:04.551Z,10.70
2019-05-18T04:33:33.304Z,10.25
2019-05-18T04:36:01.955Z,9.88
2019-05-18T04:38:30.615Z,9.83
2019-05-18T04:40:59.304Z,10.32
2019-05-18T04:43:27.980Z,10.13
2019-05-18T04:45:56.654Z,10.23
2019-05-18T04:48:25.295Z,10.48
2019-05-18T04:50:53.950Z,9.73
2019-05-18T04:53:24.160Z,10.03
2019-05-18T04:55:52.820Z,10.20
2019-05-18T04:58:21.479Z,9.88
2019-05-18T05:00:50.184Z,10.13
2019-05-18T05:03:18.857Z,11.12
2019-05-18T05:05:47.485Z,10.53
2019-05-18T05:08:16.715Z,10.85
2019-05-18T05:10:47.207Z,11.40
2019-05-18T05:13:15.856Z,10.43
2019-05-18T05:15:44.556Z,10.35
2019-05-18T05:18:13.220Z,10.70
2019-05-18T05:20:41.918Z,10.23
2019-05-18T05:23:10.601Z,10.43
2019-05-18T05:25:39.276Z,9.80
2019-05-18T05:28:08.021Z,9.83
2019-05-18T05:30:38.171Z,9.55
2019-05-18T05:33:06.919Z,10.03
2019-05-18T05:35:37.750Z,10.15
2019-05-18T05:38:06.031Z,9.53
2019-05-18T05:40:34.711Z,14.38
2019-05-18T05:43:03.366Z,12.60
2019-05-18T05:45:32.075Z,10.23
2019-05-18T05:48:00.720Z,10.68
2019-05-18T05:50:36.246Z,10.20
2019-05-18T05:52:59.755Z,10.88
2019-05-18T05:55:28.400Z,11.03
2019-05-18T05:57:59.252Z,12.35
2019-05-18T06:00:28.002Z,11.45
2019-05-18T06:02:56.739Z,11.68
2019-05-18T06:05:26.981Z,10.45
2019-05-18T06:07:55.642Z,13.75
2019-05-18T06:10:25.372Z,12.28
2019-05-18T06:12:55.885Z,12.03
2019-05-18T06:15:24.571Z,11.68
2019-05-18T06:17:53.544Z,11.43
2019-05-18T06:20:22.238Z,11.15
2019-05-18T06:22:51.362Z,11.00
2019-05-18T06:25:20.029Z,10.25
2019-05-18T06:27:48.864Z,10.60
2019-05-18T06:30:17.703Z,10.95
2019-05-18T06:32:46.581Z,11.55
2019-05-18T06:35:15.277Z,11.08
2019-05-18T06:37:43.922Z,11.00
2019-05-18T06:40:12.590Z,10.50
2019-05-18T06:42:41.300Z,11.75
2019-05-18T06:45:09.970Z,12.00
2019-05-18T06:47:40.197Z,11.20
2019-05-18T06:50:11.720Z,11.65
2019-05-18T06:52:41.232Z,15.43
2019-05-18T06:57:37.855Z,11.15
2019-05-18T07:00:07.840Z,10.88
2019-05-18T07:02:36.511Z,10.80
2019-05-18T07:05:06.446Z,11.65
2019-05-18T07:07:35.129Z,10.98
2019-05-18T07:10:05.176Z,11.18
2019-05-18T07:12:33.888Z,11.57
2019-05-18T07:15:02.529Z,11.73
2019-05-18T07:17:34.579Z,14.47
2019-05-18T07:20:02.814Z,12.30
2019-05-18T07:22:31.528Z,13.18
2019-05-18T07:25:02.240Z,15.78
2019-05-18T07:29:58.847Z,11.93
2019-05-18T07:32:27.514Z,10.90
2019-05-18T07:34:56.240Z,9.85
2019-05-18T07:37:25.038Z,10.40
2019-05-18T07:39:54.914Z,10.38
2019-05-18T07:42:23.569Z,10.08
2019-05-18T07:44:52.273Z,9.25
2019-05-18T07:47:21.003Z,9.58
2019-05-18T07:49:49.834Z,9.60
2019-05-18T07:52:18.492Z,8.48
2019-05-18T07:54:47.250Z,9.35
2019-05-18T07:57:15.916Z,8.98
2019-05-18T07:59:44.586Z,9.55
2019-05-18T08:02:13.272Z,9.23
2019-05-18T08:04:41.972Z,8.45
2019-05-18T08:07:10.622Z,7.85
2019-05-18T08:09:39.336Z,7.90
2019-05-18T08:12:08.003Z,7.92
2019-05-18T08:14:36.705Z,8.40
2019-05-18T08:17:05.396Z,8.08
2019-05-18T08:19:34.066Z,7.37
2019-05-18T08:24:33.215Z,7.40
2019-05-18T08:27:02.474Z,7.00
2019-05-18T08:29:31.105Z,7.60
2019-05-18T08:32:01.014Z,7.85
2019-05-18T08:34:29.707Z,7.85
2019-05-18T08:36:58.380Z,7.58
2019-05-18T08:39:27.108Z,7.87
2019-05-18T08:41:55.766Z,8.10
2019-05-18T08:44:24.426Z,7.28
2019-05-18T08:46:53.123Z,7.42
2019-05-18T08:49:21.769Z,6.70
2019-05-18T08:51:50.493Z,8.08
2019-05-18T08:54:20.317Z,8.00
2019-05-18T08:56:48.978Z,7.70
2019-05-18T08:59:19.260Z,10.00
2019-05-18T09:01:47.984Z,10.85
2019-05-18T09:04:16.560Z,7.92
2019-05-18T09:06:45.225Z,8.08
2019-05-18T09:09:13.953Z,7.17
2019-05-18T09:11:42.574Z,7.70
2019-05-18T09:14:11.274Z,7.62
2019-05-18T09:16:41.304Z,7.70
2019-05-18T09:19:09.993Z,7.25
2019-05-18T09:21:38.561Z,7.83
2019-05-18T09:24:07.160Z,8.48
2019-05-18T09:26:35.821Z,7.50
2019-05-18T09:29:06.049Z,7.30
2019-05-18T09:31:34.698Z,8.68
2019-05-18T09:34:03.298Z,8.60
2019-05-18T09:36:31.934Z,7.53
2019-05-18T09:39:00.604Z,7.53
2019-05-18T09:41:29.247Z,8.28
2019-05-18T09:43:57.916Z,8.85
2019-05-18T09:46:26.529Z,8.35
2019-05-18T09:48:55.238Z,8.33
2019-05-18T09:51:23.906Z,10.03
2019-05-18T09:53:52.586Z,10.08
2019-05-18T09:56:21.298Z,11.28
2019-05-18T09:58:49.887Z,11.95
2019-05-18T10:01:18.693Z,8.70
2019-05-18T10:03:47.345Z,9.18
2019-05-18T10:06:16.317Z,8.90
2019-05-18T10:08:45.652Z,8.38
2019-05-18T10:11:14.884Z,7.90
2019-05-18T10:13:44.707Z,8.25
2019-05-18T10:16:13.388Z,8.23
2019-05-18T10:18:42.386Z,7.87
2019-05-18T10:21:11.712Z,7.62
2019-05-18T10:23:40.599Z,7.92
2019-05-18T10:26:09.224Z,8.15
2019-05-18T10:28:37.869Z,8.48
2019-05-18T10:31:06.569Z,8.63
2019-05-18T10:33:35.391Z,9.05
2019-05-18T10:36:04.052Z,8.53
2019-05-18T10:38:32.675Z,9.35
2019-05-18T10:41:01.330Z,9.45
2019-05-18T10:43:29.971Z,9.58
2019-05-18T10:45:58.683Z,8.90
2019-05-18T10:48:27.360Z,9.13
2019-05-18T10:50:56.195Z,10.68
2019-05-18T10:53:28.862Z,10.45
2019-05-18T10:55:55.569Z,10.60
2019-05-18T10:58:24.240Z,10.53
2019-05-18T11:00:53.581Z,10.88
2019-05-18T11:03:22.258Z,11.30
2019-05-18T11:05:50.931Z,11.25
2019-05-18T11:08:19.662Z,12.15
2019-05-18T11:10:48.328Z,11.38
2019-05-18T11:13:17.451Z,12.63
2019-05-18T11:15:46.211Z,12.37
2019-05-18T11:18:16.302Z,13.10
2019-05-18T11:20:44.968Z,13.35
2019-05-18T11:23:13.651Z,12.95
2019-05-18T11:25:42.554Z,12.95
2019-05-18T11:28:11.240Z,12.63
2019-05-18T11:30:39.902Z,12.73
2019-05-18T11:33:11.432Z,13.18
2019-05-18T11:35:40.203Z,12.68
2019-05-18T11:38:08.917Z,11.65
2019-05-18T11:40:38.050Z,12.50
2019-05-18T11:43:06.793Z,13.30
2019-05-18T11:45:35.524Z,12.75
2019-05-18T11:48:04.585Z,13.53
2019-05-18T11:50:33.533Z,13.65
2019-05-18T11:53:02.271Z,13.10
2019-05-18T11:55:31.009Z,12.53
2019-05-18T11:58:00.007Z,13.58
2019-05-18T12:00:28.738Z,11.70
2019-05-18T12:02:57.329Z,12.05
2019-05-18T12:05:26.012Z,11.70
2019-05-18T12:07:54.713Z,12.15
2019-05-18T12:10:25.326Z,13.32
2019-05-18T12:15:22.100Z,12.58
2019-05-18T12:17:51.509Z,11.57
2019-05-18T12:20:20.344Z,11.05
2019-05-18T12:22:49.069Z,11.55
2019-05-18T12:25:18.148Z,11.03
2019-05-18T12:27:46.816Z,11.63
2019-05-18T12:30:15.549Z,10.68
2019-05-18T12:32:45.364Z,11.12
2019-05-18T12:35:14.048Z,11.40
2019-05-18T12:37:45.008Z,11.45
2019-05-18T12:40:15.735Z,12.15
2019-05-18T12:45:12.640Z,11.88
2019-05-18T12:47:41.306Z,11.03
2019-05-18T12:50:10.120Z,11.28
2019-05-18T12:52:38.816Z,10.35
2019-05-18T12:55:07.500Z,10.65
2019-05-18T12:57:36.630Z,11.15
2019-05-18T13:00:07.403Z,11.03
2019-05-18T13:02:36.787Z,10.58
2019-05-18T13:05:06.954Z,10.60
2019-05-18T13:07:35.551Z,10.72
2019-05-18T13:10:06.628Z,12.25
2019-05-18T13:12:36.198Z,10.75
2019-05-18T13:15:07.998Z,11.05
2019-05-18T13:17:36.730Z,10.88
2019-05-18T13:20:09.376Z,10.28
2019-05-18T13:22:38.053Z,10.10
2019-05-18T13:25:06.849Z,10.82
2019-05-18T13:27:39.579Z,11.53
2019-05-18T13:30:07.369Z,10.82
2019-05-18T13:32:37.409Z,11.12
2019-05-18T13:35:06.960Z,10.80
2019-05-18T13:37:35.624Z,11.30
2019-05-18T13:40:08.393Z,11.90
2019-05-18T13:42:37.072Z,11.85
2019-05-18T13:45:07.152Z,11.38
2019-05-18T13:47:35.973Z,12.55
2019-05-18T13:50:05.462Z,11.57
2019-05-18T13:52:34.156Z,11.68
2019-05-18T13:55:04.972Z,12.50
2019-05-18T13:57:33.142Z,13.35
2019-05-18T14:00:01.747Z,12.05
2019-05-18T14:02:30.410Z,12.05
2019-05-18T14:04:59.121Z,11.65
2019-05-18T14:07:27.798Z,13.05
2019-05-18T14:09:56.399Z,12.58
2019-05-18T14:12:25.117Z,13.15
2019-05-18T14:14:53.779Z,13.38
2019-05-18T14:17:22.395Z,12.80
2019-05-18T14:19:51.061Z,12.60
2019-05-18T14:22:19.768Z,12.53
2019-05-18T14:24:48.438Z,13.85
2019-05-18T14:27:17.101Z,32.33
2019-05-18T14:29:45.819Z,12.93
2019-05-18T14:32:14.482Z,12.53
2019-05-18T14:34:43.196Z,12.53
2019-05-18T14:37:11.835Z,15.25
2019-05-18T14:39:40.511Z,14.58
2019-05-18T14:42:09.262Z,22.25
2019-05-18T14:44:37.924Z,18.95
2019-05-18T14:47:06.683Z,14.85
2019-05-18T14:49:35.400Z,13.22
2019-05-18T14:52:04.110Z,15.78
2019-05-18T14:54:32.864Z,14.38
2019-05-18T14:57:03.347Z,16.70
2019-05-18T14:59:32.009Z,14.73
2019-05-18T15:02:00.659Z,14.78
2019-05-18T15:04:29.417Z,15.60
2019-05-18T15:06:57.992Z,14.33
2019-05-18T15:09:26.717Z,15.83
2019-05-18T15:11:55.389Z,14.38
2019-05-18T15:14:24.062Z,16.07
2019-05-18T15:16:53.111Z,15.30
2019-05-18T15:19:21.952Z,16.30
2019-05-18T15:21:50.630Z,16.35
2019-05-18T15:24:19.339Z,18.42
2019-05-18T15:26:48.067Z,17.65
2019-05-18T15:29:16.781Z,17.48
2019-05-18T15:31:45.488Z,18.12
2019-05-18T15:34:14.208Z,17.40
2019-05-18T15:36:42.877Z,17.85
2019-05-18T15:39:11.597Z,18.62
2019-05-18T15:41:40.255Z,18.95
2019-05-18T15:44:08.923Z,16.00
2019-05-18T15:46:39.395Z,17.32
2019-05-18T15:49:08.174Z,16.67
2019-05-18T15:51:36.818Z,18.27
2019-05-18T15:54:07.425Z,17.48
2019-05-18T15:59:04.063Z,19.02
2019-05-18T16:01:32.774Z,22.60
2019-05-18T16:04:01.492Z,16.02
2019-05-18T16:06:30.148Z,18.87
2019-05-18T16:08:58.882Z,17.30
2019-05-18T16:11:27.583Z,18.12
2019-05-18T16:13:56.249Z,16.12
2019-05-18T16:16:26.361Z,16.30
2019-05-18T16:18:55.011Z,17.27
2019-05-18T16:21:23.670Z,15.98
2019-05-18T16:23:52.374Z,17.20
2019-05-18T16:26:22.042Z,15.83
2019-05-18T16:28:50.868Z,16.82
2019-05-18T16:31:19.585Z,18.95
2019-05-18T16:33:48.166Z,17.42
2019-05-18T16:36:16.896Z,20.23
2019-05-18T16:38:45.610Z,19.42
2019-05-18T16:41:14.302Z,17.70
2019-05-18T16:43:42.994Z,18.92
2019-05-18T16:46:11.655Z,18.67
2019-05-18T16:48:40.339Z,20.17
2019-05-18T16:51:09.072Z,19.17
2019-05-18T16:53:37.755Z,17.62
2019-05-18T16:56:06.410Z,19.32
2019-05-18T16:58:35.108Z,19.70
2019-05-18T17:01:03.786Z,19.12
2019-05-18T17:03:32.323Z,29.00
2019-05-18T17:06:01.902Z,25.88
2019-05-18T17:08:30.593Z,22.35
2019-05-18T17:10:59.236Z,21.45
2019-05-18T17:13:27.942Z,20.12
2019-05-18T17:15:56.659Z,20.72
2019-05-18T17:18:25.323Z,21.37
2019-05-18T17:20:55.358Z,20.20
2019-05-18T17:23:24.076Z,20.43
2019-05-18T17:25:52.837Z,20.05
2019-05-18T17:28:21.522Z,19.95
2019-05-18T17:30:50.191Z,20.95
2019-05-18T17:33:18.885Z,19.87
2019-05-18T17:35:59.946Z,20.23
2019-05-18T17:38:17.914Z,19.77
2019-05-18T17:40:46.585Z,20.40
2019-05-18T17:43:15.260Z,20.75
2019-05-18T17:45:44.009Z,20.68
2019-05-18T17:48:12.672Z,20.12
2019-05-18T17:50:41.345Z,19.15
2019-05-18T17:53:10.071Z,19.75
2019-05-18T17:55:38.767Z,21.17
2019-05-18T17:58:07.511Z,21.77
2019-05-18T18:00:36.224Z,22.30
2019-05-18T18:03:04.917Z,21.85
2019-05-18T18:05:33.585Z,21.75
2019-05-18T18:08:03.161Z,22.42
2019-05-18T18:10:31.839Z,19.90
2019-05-18T18:13:00.482Z,20.05
2019-05-18T18:15:29.244Z,20.50
2019-05-18T18:17:57.906Z,20.75
2019-05-18T18:20:26.582Z,19.70
2019-05-18T18:22:55.288Z,19.25
2019-05-18T18:25:23.960Z,20.43
2019-05-18T18:27:52.638Z,20.43
2019-05-18T18:30:22.435Z,20.23
2019-05-18T18:32:51.103Z,20.32
2019-05-18T18:35:19.810Z,22.17
2019-05-18T18:37:50.029Z,20.88
2019-05-18T18:40:18.695Z,23.18
2019-05-18T18:42:47.399Z,23.32
2019-05-18T18:45:16.123Z,22.20
2019-05-18T18:47:44.778Z,23.07
2019-05-18T18:50:13.498Z,24.05
2019-05-18T18:52:42.191Z,23.95
2019-05-18T18:55:12.467Z,23.75
2019-05-18T18:57:42.245Z,24.85
2019-05-18T19:00:11.285Z,24.37
2019-05-18T19:02:39.986Z,28.00
2019-05-18T19:05:10.496Z,31.45
2019-05-18T19:07:39.195Z,28.92
2019-05-18T19:10:07.857Z,26.10
2019-05-18T19:12:36.570Z,24.80
2019-05-18T19:15:08.389Z,23.65
2019-05-18T19:17:37.067Z,24.40
2019-05-18T19:20:06.078Z,23.30
2019-05-18T19:22:34.751Z,23.10
2019-05-18T19:25:03.456Z,22.90
2019-05-18T19:27:32.197Z,23.35
2019-05-18T19:30:00.905Z,22.45
2019-05-18T19:32:29.561Z,23.62
2019-05-18T19:34:58.291Z,22.58
2019-05-18T19:37:26.942Z,22.05
2019-05-18T19:39:56.590Z,23.45
2019-05-18T19:42:25.263Z,24.15
2019-05-18T19:44:53.937Z,24.37
2019-05-18T19:47:22.650Z,25.70
2019-05-18T19:49:51.319Z,25.17
2019-05-18T19:52:19.986Z,24.47
2019-05-18T19:54:48.686Z,25.45
2019-05-18T19:57:17.371Z,26.75
2019-05-18T19:59:46.030Z,28.90
2019-05-18T20:02:18.531Z,40.63
2019-05-18T20:05:05.783Z,23.52
2019-05-18T20:07:16.922Z,23.90
2019-05-18T20:09:45.625Z,22.40
2019-05-18T20:12:14.287Z,22.93
2019-05-18T20:14:43.000Z,21.95
2019-05-18T20:17:11.740Z,23.77
2019-05-18T20:19:40.388Z,23.15
2019-05-18T20:22:09.138Z,23.30
2019-05-18T20:24:37.815Z,23.07
2019-05-18T20:27:06.505Z,23.42
2019-05-18T20:29:35.240Z,23.35
2019-05-18T20:32:03.925Z,22.22
2019-05-18T20:34:32.634Z,23.42
2019-05-18T20:37:01.323Z,22.22
2019-05-18T20:39:29.996Z,23.38
2019-05-18T20:41:58.675Z,22.62
2019-05-18T20:44:27.342Z,22.50
2019-05-18T20:46:56.005Z,23.47
2019-05-18T20:49:24.710Z,23.85
2019-05-18T20:51:53.400Z,22.27
2019-05-18T20:54:22.061Z,23.15
2019-05-18T20:56:50.777Z,22.65
2019-05-18T20:59:19.352Z,22.40
2019-05-18T21:01:49.577Z,22.93
2019-05-18T21:04:19.432Z,22.77
2019-05-18T21:06:48.044Z,22.80
2019-05-18T21:09:16.798Z,22.62
2019-05-18T21:11:47.508Z,23.22
2019-05-18T21:16:44.148Z,23.10
2019-05-18T21:19:12.841Z,23.32
2019-05-18T21:21:41.521Z,23.55
2019-05-18T21:24:10.231Z,23.10
2019-05-18T21:26:40.546Z,22.45
2019-05-18T21:29:09.261Z,22.00
2019-05-18T21:31:37.960Z,22.50
2019-05-18T21:34:06.643Z,24.00
2019-05-18T21:36:35.334Z,23.27
2019-05-18T21:39:05.099Z,23.30
2019-05-18T21:41:33.772Z,23.43
2019-05-18T21:44:02.469Z,23.52
2019-05-18T21:46:31.081Z,22.73
2019-05-18T21:48:59.761Z,22.82
2019-05-18T21:51:28.493Z,23.32
2019-05-18T21:53:57.171Z,22.62
2019-05-18T21:56:25.831Z,21.95
2019-05-18T21:58:54.587Z,22.80
2019-05-18T22:01:23.249Z,23.10
2019-05-18T22:03:53.312Z,22.50
2019-05-18T22:06:22.011Z,21.95
2019-05-18T22:08:50.698Z,21.48
2019-05-18T22:11:19.299Z,22.65
2019-05-18T22:13:47.992Z,22.77
2019-05-18T22:16:16.676Z,21.68
2019-05-18T22:18:45.361Z,22.27
2019-05-18T22:21:14.035Z,23.22
2019-05-18T22:23:42.705Z,22.37
2019-05-18T22:26:11.385Z,23.02
2019-05-18T22:28:40.086Z,22.42
2019-05-18T22:31:08.773Z,22.80
2019-05-18T22:33:37.437Z,23.32
2019-05-18T22:36:06.188Z,23.45
2019-05-18T22:38:34.887Z,22.90
2019-05-18T22:41:03.831Z,23.77
2019-05-18T22:43:32.660Z,24.45
2019-05-18T22:46:01.565Z,22.85
2019-05-18T22:48:40.925Z,22.93
2019-05-18T22:51:00.594Z,22.58
2019-05-18T22:53:29.253Z,22.73
2019-05-18T22:55:58.185Z,23.12
2019-05-18T22:58:27.098Z,22.70
2019-05-18T23:00:55.807Z,23.90
2019-05-18T23:03:26.046Z,23.27
2019-05-18T23:05:54.768Z,23.07
2019-05-18T23:08:23.443Z,23.12
2019-05-18T23:10:52.224Z,21.68
2019-05-18T23:13:20.860Z,22.67
2019-05-18T23:15:49.550Z,22.60
2019-05-18T23:18:18.292Z,22.30
2019-05-18T23:20:46.975Z,22.40
2019-05-18T23:23:15.666Z,21.75
2019-05-18T23:25:45.564Z,22.15
2019-05-18T23:28:15.650Z,22.73
2019-05-18T23:30:44.325Z,23.30
2019-05-18T23:33:13.031Z,22.80
2019-05-18T23:35:41.702Z,21.95
2019-05-18T23:38:10.399Z,23.15
2019-05-18T23:40:39.075Z,22.30
2019-05-18T23:43:07.799Z,23.90
2019-05-18T23:45:36.480Z,22.37
2019-05-18T23:48:05.117Z,24.30
2019-05-18T23:50:33.788Z,23.10
2019-05-18T23:53:02.488Z,23.80
2019-05-18T23:55:31.191Z,23.77
2019-05-18T23:58:04.915Z,22.95
